Time;durP1;ratioP1;P1;durP2;ratioP2;P2;SDS_P1;SDS_P2;PMS_P1;PMS_P2;Temp;Humidity;BMP_temperature;BMP_pressure;BME280_temperature;BME280_humidity;BME280_pressure;Samples;Min_cycle;Max_cycle;Signal;HPM_P1;HPM_P2
2023/10/03 03:31:26;;;;;;;14.23;7.50;;;17.60;99.90;;;;;;5668417;23;20492;-65
2023/10/03 03:33:56;;;;;;;12.37;7.57;;;17.60;99.90;;;;;;4953985;28;20952;-65
2023/10/03 03:36:29;;;;;;;9.90;6.27;;;17.70;99.90;;;;;;4953786;28;20908;-65
2023/10/03 03:38:56;;;;;;;12.37;6.60;;;17.70;99.90;;;;;;4948338;28;20850;-64
2023/10/03 03:41:23;;;;;;;8.47;5.40;;;17.80;99.90;;;;;;4954757;28;20963;-66
2023/10/03 03:43:50;;;;;;;10.83;7.00;;;17.70;99.90;;;;;;4953855;28;20468;-65
2023/10/03 03:46:18;;;;;;;8.70;6.00;;;17.70;99.90;;;;;;4953920;28;20504;-64
2023/10/03 03:48:47;;;;;;;13.20;6.33;;;17.70;99.90;;;;;;4953191;28;20560;-63
2023/10/03 03:51:14;;;;;;;10.30;6.73;;;17.70;99.90;;;;;;4954564;28;20494;-63
2023/10/03 03:53:43;;;;;;;14.33;6.00;;;17.80;99.90;;;;;;4953846;28;20464;-63
2023/10/03 03:56:12;;;;;;;10.67;5.50;;;17.80;99.90;;;;;;4954419;28;20836;-63
2023/10/03 03:58:40;;;;;;;7.57;5.23;;;17.80;99.90;;;;;;4953726;28;20467;-63
2023/10/03 04:01:13;;;;;;;12.63;6.03;;;17.90;99.90;;;;;;4954372;28;20491;-63
2023/10/03 04:03:42;;;;;;;11.67;6.33;;;17.90;99.90;;;;;;4953796;28;20464;-64
2023/10/03 04:06:10;;;;;;;9.90;6.07;;;18.00;99.90;;;;;;4954032;28;20494;-63
2023/10/03 04:08:38;;;;;;;11.73;6.27;;;17.90;99.90;;;;;;4953673;28;20600;-63
2023/10/03 04:11:07;;;;;;;12.40;6.10;;;18.00;99.90;;;;;;4954173;28;20491;-63
2023/10/03 04:13:38;;;;;;;10.87;5.70;;;18.00;99.90;;;;;;4953127;28;20468;-63
2023/10/03 04:16:06;;;;;;;14.50;6.43;;;18.00;99.90;;;;;;4953901;28;20984;-63
2023/10/03 04:18:33;;;;;;;8.10;5.03;;;18.00;99.90;;;;;;4953724;28;20460;-63
2023/10/03 04:21:00;;;;;;;11.40;5.50;;;18.10;99.90;;;;;;4954004;28;21040;-63
2023/10/03 04:23:28;;;;;;;8.13;5.70;;;18.10;99.90;;;;;;4953899;28;20461;-63
2023/10/03 04:25:55;;;;;;;10.37;6.10;;;18.10;99.90;;;;;;4953622;28;20465;-63
2023/10/03 04:28:21;;;;;;;7.10;5.13;;;18.10;99.90;;;;;;4954123;28;21044;-63
2023/10/03 04:30:49;;;;;;;8.67;5.60;;;18.10;99.90;;;;;;4953587;28;20487;-63
2023/10/03 04:33:20;;;;;;;11.33;6.20;;;18.10;99.90;;;;;;4953999;28;20460;-63
2023/10/03 04:35:47;;;;;;;9.77;6.40;;;18.20;99.90;;;;;;4953494;28;20557;-64
2023/10/03 04:38:16;;;;;;;9.27;5.87;;;18.20;99.90;;;;;;4953924;28;20473;-63
2023/10/03 04:40:47;;;;;;;8.77;5.30;;;18.20;99.90;;;;;;4953683;28;20858;-63
2023/10/03 04:43:14;;;;;;;7.00;5.10;;;18.20;99.90;;;;;;4954069;28;20467;-63
2023/10/03 04:45:41;;;;;;;9.60;5.30;;;18.20;99.90;;;;;;4953304;28;20552;-63
2023/10/03 04:48:10;;;;;;;9.53;5.77;;;18.20;99.90;;;;;;4953900;28;20507;-63
2023/10/03 04:50:39;;;;;;;9.60;4.63;;;18.20;99.90;;;;;;4953561;28;20567;-64
2023/10/03 04:53:09;;;;;;;8.93;5.47;;;18.20;99.90;;;;;;4953720;28;20488;-64
2023/10/03 04:55:36;;;;;;;12.40;6.30;;;18.20;99.90;;;;;;4953412;28;20473;-64
2023/10/03 04:58:04;;;;;;;8.40;4.33;;;18.30;99.90;;;;;;4948850;28;20465;-64
2023/10/03 05:00:31;;;;;;;8.03;5.20;;;18.30;99.90;;;;;;4949765;28;20980;-64
2023/10/03 05:02:58;;;;;;;7.60;4.60;;;18.30;99.90;;;;;;4946286;29;20467;-64
2023/10/03 05:05:26;;;;;;;8.20;4.93;;;18.30;99.90;;;;;;4953124;28;20474;-64
2023/10/03 05:07:56;;;;;;;9.53;5.40;;;18.40;99.90;;;;;;4945284;29;20485;-63
2023/10/03 05:10:24;;;;;;;8.63;5.57;;;18.40;99.90;;;;;;4946485;28;20546;-64
2023/10/03 05:12:52;;;;;;;8.10;5.50;;;18.40;99.90;;;;;;4949693;29;21018;-63
2023/10/03 05:15:21;;;;;;;8.23;5.33;;;18.40;99.90;;;;;;4948489;29;20584;-63
2023/10/03 05:17:49;;;;;;;9.80;5.67;;;18.40;99.90;;;;;;4937582;28;20969;-63
2023/10/03 05:20:18;;;;;;;9.03;5.50;;;18.40;99.90;;;;;;4953305;28;20461;-64
2023/10/03 05:22:45;;;;;;;8.90;4.70;;;18.30;99.90;;;;;;4952878;28;20524;-63
2023/10/03 05:25:13;;;;;;;10.67;5.63;;;18.30;99.90;;;;;;4952727;28;20821;-64
2023/10/03 05:27:42;;;;;;;8.60;5.40;;;18.20;99.90;;;;;;4951797;28;20909;-64
2023/10/03 05:30:10;;;;;;;7.93;4.73;;;18.20;99.90;;;;;;4942388;29;20524;-63
2023/10/03 05:32:39;;;;;;;8.17;4.70;;;18.30;99.90;;;;;;4950583;29;21044;-63
2023/10/03 05:35:07;;;;;;;10.40;5.93;;;18.20;99.90;;;;;;4940480;28;20894;-63
2023/10/03 05:37:34;;;;;;;10.07;5.70;;;18.20;99.90;;;;;;4936235;29;20826;-63
2023/10/03 05:40:11;;;;;;;9.17;5.40;;;18.20;99.90;;;;;;4934858;29;20469;-63
2023/10/03 05:42:41;;;;;;;9.47;5.10;;;18.20;99.90;;;;;;4935325;29;20490;-63
2023/10/03 05:45:10;;;;;;;8.13;5.07;;;18.20;99.90;;;;;;4941898;29;20474;-63
2023/10/03 05:47:38;;;;;;;7.27;5.03;;;18.20;99.90;;;;;;4935572;29;20461;-63
2023/10/03 05:50:05;;;;;;;6.90;4.30;;;18.20;99.90;;;;;;4935203;29;20497;-63
2023/10/03 05:52:32;;;;;;;8.90;4.10;;;18.20;99.90;;;;;;4935760;29;20500;-63
2023/10/03 05:54:59;;;;;;;7.77;4.97;;;18.30;99.90;;;;;;4934645;29;21018;-63
2023/10/03 05:57:26;;;;;;;5.63;4.37;;;18.40;99.90;;;;;;4942495;29;20461;-63
2023/10/03 05:59:52;;;;;;;5.93;4.47;;;18.40;99.90;;;;;;4949233;29;20466;-63
2023/10/03 06:02:19;;;;;;;9.53;5.87;;;18.50;99.90;;;;;;4948490;29;20489;-63
2023/10/03 06:04:47;;;;;;;6.13;4.70;;;18.50;99.90;;;;;;4944894;28;20908;-63
2023/10/03 06:07:14;;;;;;;10.20;5.27;;;18.50;99.90;;;;;;4945669;28;20465;-63
2023/10/03 06:09:41;;;;;;;7.20;4.33;;;18.60;99.90;;;;;;4944456;28;20489;-63
2023/10/03 06:12:09;;;;;;;8.07;4.20;;;18.50;99.90;;;;;;4939689;28;20572;-63
2023/10/03 06:14:36;;;;;;;8.50;5.40;;;18.60;99.90;;;;;;4955911;28;20488;-63
2023/10/03 06:17:03;;;;;;;8.23;4.93;;;18.50;99.90;;;;;;4949784;29;20585;-63
2023/10/03 06:19:31;;;;;;;6.27;4.30;;;18.60;99.90;;;;;;4949794;28;20463;-63
2023/10/03 06:21:59;;;;;;;6.50;4.40;;;18.50;99.90;;;;;;4946367;28;20494;-63
2023/10/03 06:24:27;;;;;;;6.83;5.10;;;18.60;99.90;;;;;;4946109;29;20470;-63
2023/10/03 06:26:55;;;;;;;6.70;4.37;;;18.70;99.90;;;;;;4940050;28;20468;-63
2023/10/03 06:29:23;;;;;;;6.93;4.63;;;18.70;99.90;;;;;;4939400;29;20997;-63
2023/10/03 06:31:51;;;;;;;9.40;5.57;;;18.70;99.90;;;;;;4948626;29;21041;-63
2023/10/03 06:34:18;;;;;;;7.80;5.17;;;18.70;99.90;;;;;;4944121;28;20462;-63
2023/10/03 06:36:45;;;;;;;8.10;5.27;;;18.70;99.90;;;;;;4946932;29;20473;-64
2023/10/03 06:39:14;;;;;;;5.20;4.17;;;18.70;99.90;;;;;;4951951;29;21024;-63
2023/10/03 06:41:41;;;;;;;4.80;4.27;;;18.70;99.90;;;;;;4956051;28;20883;-63
2023/10/03 06:44:07;;;;;;;10.40;5.43;;;18.80;99.90;;;;;;4955851;28;20475;-64
2023/10/03 06:46:35;;;;;;;7.17;4.57;;;18.80;99.90;;;;;;4949092;28;20526;-63
2023/10/03 06:49:01;;;;;;;10.73;4.60;;;18.90;99.90;;;;;;4955209;28;20493;-64
2023/10/03 06:51:28;;;;;;;7.20;4.80;;;18.90;99.90;;;;;;4955756;28;20540;-63
2023/10/03 06:53:55;;;;;;;7.90;5.20;;;19.00;99.90;;;;;;4955476;28;20885;-64
2023/10/03 06:56:23;;;;;;;6.70;4.20;;;19.10;99.90;;;;;;4955532;28;20468;-64
2023/10/03 06:58:50;;;;;;;7.10;4.27;;;19.20;99.90;;;;;;4955118;28;20468;-64
2023/10/03 07:01:17;;;;;;;7.30;5.03;;;19.30;99.90;;;;;;4955651;28;20485;-64
2023/10/03 07:03:44;;;;;;;7.93;4.33;;;19.40;99.90;;;;;;4948813;28;20961;-64
2023/10/03 07:06:12;;;;;;;6.57;4.40;;;19.50;99.90;;;;;;4948866;28;20521;-63
2023/10/03 07:08:41;;;;;;;6.83;4.80;;;19.60;99.90;;;;;;4949145;28;20499;-64
2023/10/03 07:11:12;;;;;;;5.23;4.07;;;19.70;99.90;;;;;;4949110;28;20976;-64
2023/10/03 07:13:40;;;;;;;7.20;4.73;;;19.90;99.90;;;;;;4955410;28;21021;-63
2023/10/03 07:16:08;;;;;;;8.93;5.07;;;20.00;99.90;;;;;;4955144;28;20463;-64
2023/10/03 07:18:36;;;;;;;8.87;5.27;;;20.10;99.90;;;;;;4949100;28;20548;-64
2023/10/03 07:21:03;;;;;;;6.53;4.30;;;20.20;99.90;;;;;;4954985;28;20549;-63
2023/10/03 07:23:30;;;;;;;6.60;4.90;;;20.20;99.90;;;;;;4948470;28;20988;-63
2023/10/03 07:25:56;;;;;;;7.67;4.60;;;20.30;99.90;;;;;;4954412;28;20471;-63
2023/10/03 07:28:23;;;;;;;4.70;3.80;;;20.40;99.90;;;;;;4949808;28;20475;-64
2023/10/03 07:30:51;;;;;;;6.87;4.90;;;20.60;99.90;;;;;;4954285;28;20625;-64
2023/10/03 07:33:19;;;;;;;6.30;4.50;;;20.70;99.90;;;;;;4944480;28;20474;-63
2023/10/03 07:35:46;;;;;;;5.97;4.80;;;20.80;99.90;;;;;;4953581;29;20503;-64
2023/10/03 07:38:13;;;;;;;5.70;4.43;;;20.90;99.90;;;;;;4951020;28;20472;-63
2023/10/03 07:40:41;;;;;;;9.47;4.77;;;21.00;99.90;;;;;;4953368;28;20552;-64
2023/10/03 07:43:09;;;;;;;9.90;5.10;;;21.10;99.90;;;;;;4949127;28;20464;-63
2023/10/03 07:45:37;;;;;;;6.47;4.37;;;21.30;99.90;;;;;;4942797;28;20501;-63
2023/10/03 07:48:06;;;;;;;6.10;4.33;;;21.40;99.90;;;;;;4948903;28;20490;-63
2023/10/03 07:50:37;;;;;;;11.00;4.40;;;21.50;99.90;;;;;;4948871;28;20500;-64
2023/10/03 07:53:04;;;;;;;5.97;4.13;;;21.70;99.90;;;;;;4948615;28;20474;-63
2023/10/03 07:55:35;;;;;;;5.00;4.27;;;21.80;99.90;;;;;;4948541;28;20472;-64
2023/10/03 07:58:02;;;;;;;5.50;4.03;;;21.90;99.90;;;;;;4954453;28;20471;-64
2023/10/03 08:00:28;;;;;;;7.67;4.80;;;22.00;99.90;;;;;;4948727;28;20555;-63
2023/10/03 08:02:55;;;;;;;6.13;3.80;;;22.10;99.90;;;;;;4954376;28;20471;-64
2023/10/03 08:05:27;;;;;;;5.27;4.43;;;22.20;99.90;;;;;;4948403;28;20472;-64
2023/10/03 08:07:54;;;;;;;6.23;3.60;;;22.40;99.90;;;;;;4953039;28;20456;-64
2023/10/03 08:10:21;;;;;;;7.13;3.60;;;22.60;99.90;;;;;;4945459;29;20863;-63
2023/10/03 08:12:52;;;;;;;5.67;3.67;;;22.70;99.90;;;;;;4947987;29;20475;-64
2023/10/03 08:15:19;;;;;;;4.87;3.97;;;22.90;99.90;;;;;;4953146;28;20464;-63
2023/10/03 08:17:48;;;;;;;4.93;3.97;;;23.10;99.90;;;;;;4953241;29;20523;-64
2023/10/03 08:20:15;;;;;;;5.33;3.70;;;23.20;99.90;;;;;;4944951;28;20525;-64
2023/10/03 08:22:50;;;;;;;5.83;4.20;;;23.40;99.90;;;;;;4952863;29;20926;-64
2023/10/03 08:25:18;;;;;;;6.80;4.73;;;23.60;99.90;;;;;;4949033;29;20524;-64
2023/10/03 08:27:46;;;;;;;6.23;3.67;;;23.90;99.90;;;;;;4943458;28;20540;-64
2023/10/03 08:30:25;;;;;;;4.30;3.40;;;24.10;99.90;;;;;;4948944;28;20488;-64
2023/10/03 08:32:54;;;;;;;5.97;3.80;;;24.10;99.90;;;;;;4947802;28;20476;-64
2023/10/03 08:35:21;;;;;;;5.03;3.43;;;24.20;99.90;;;;;;4949515;28;20551;-64
2023/10/03 08:37:49;;;;;;;4.40;3.60;;;24.30;99.90;;;;;;4943530;28;20858;-64
2023/10/03 08:40:22;;;;;;;4.83;3.70;;;24.30;99.90;;;;;;4948742;28;20460;-64
2023/10/03 08:42:52;;;;;;;5.47;3.20;;;24.30;99.90;;;;;;4948448;28;20464;-64
2023/10/03 08:45:23;;;;;;;6.57;4.13;;;24.30;99.90;;;;;;4943695;29;20460;-64
2023/10/03 08:47:51;;;;;;;4.20;3.40;;;24.20;99.90;;;;;;4953637;28;20501;-63
2023/10/03 08:50:33;;;;;;;3.83;3.40;;;24.10;99.90;;;;;;4944825;28;20481;-64
2023/10/03 08:53:12;;;;;;;6.17;4.10;;;24.00;99.90;;;;;;4946412;29;20460;-64
2023/10/03 08:55:43;;;;;;;4.20;3.63;;;24.00;99.90;;;;;;4948322;28;20883;-64
2023/10/03 08:58:13;;;;;;;3.80;3.13;;;24.20;99.90;;;;;;4948413;28;20463;-64
2023/10/03 09:00:44;;;;;;;4.47;3.47;;;24.30;99.90;;;;;;4948538;28;20511;-64
2023/10/03 09:03:13;;;;;;;5.90;4.10;;;24.30;99.90;;;;;;4950407;28;20472;-64
2023/10/03 09:05:41;;;;;;;5.57;3.90;;;24.20;99.90;;;;;;4941612;29;20855;-64
2023/10/03 09:08:09;;;;;;;4.93;4.20;;;24.20;99.90;;;;;;4946258;28;20464;-64
2023/10/03 09:10:43;;;;;;;4.77;3.83;;;24.30;99.90;;;;;;4951265;28;20492;-64
2023/10/03 09:13:23;;;;;;;4.73;3.60;;;24.30;99.90;;;;;;4948277;28;20467;-64
2023/10/03 09:15:50;;;;;;;6.50;3.83;;;24.30;99.90;;;;;;4943485;28;20468;-64
2023/10/03 09:18:21;;;;;;;5.13;3.93;;;24.40;99.90;;;;;;4953462;28;20504;-64
2023/10/03 09:20:49;;;;;;;6.73;4.00;;;24.40;99.90;;;;;;4953148;28;20540;-64
2023/10/03 09:23:18;;;;;;;5.33;3.83;;;24.40;99.90;;;;;;4949676;28;20469;-64
2023/10/03 09:25:52;;;;;;;6.53;4.03;;;24.40;99.90;;;;;;4951778;29;20872;-64
2023/10/03 09:28:19;;;;;;;5.30;3.97;;;24.20;99.90;;;;;;4940646;29;20477;-64
2023/10/03 09:30:46;;;;;;;4.33;3.93;;;24.20;99.90;;;;;;4947421;28;20909;-64
2023/10/03 09:33:16;;;;;;;4.93;3.40;;;24.20;99.90;;;;;;4945531;28;20541;-64
2023/10/03 09:35:57;;;;;;;6.00;4.27;;;24.20;99.90;;;;;;4946813;29;20873;-65
2023/10/03 09:38:44;;;;;;;6.40;4.23;;;24.20;99.90;;;;;;4946022;28;20840;-64
2023/10/03 09:41:17;;;;;;;6.73;3.50;;;24.20;99.90;;;;;;4947270;28;20857;-65
2023/10/03 09:43:49;;;;;;;4.27;3.50;;;24.10;99.90;;;;;;4947585;28;20468;-65
2023/10/03 09:46:23;;;;;;;5.87;3.23;;;24.30;99.90;;;;;;4948242;29;20504;-64
2023/10/03 09:48:53;;;;;;;4.10;2.90;;;24.60;99.90;;;;;;4951038;29;20522;-63
2023/10/03 09:51:24;;;;;;;4.20;3.37;;;24.70;99.90;;;;;;4952221;28;20591;-65
2023/10/03 09:53:53;;;;;;;6.27;4.03;;;24.90;99.90;;;;;;4947452;28;21068;-64
2023/10/03 09:56:21;;;;;;;4.50;3.43;;;25.20;99.90;;;;;;4943041;29;20973;-64
2023/10/03 09:58:48;;;;;;;5.80;3.40;;;25.60;99.90;;;;;;4951892;28;20472;-65
2023/10/03 10:01:18;;;;;;;3.77;3.30;;;26.00;99.90;;;;;;4940161;28;20503;-64
2023/10/03 10:03:48;;;;;;;4.80;3.30;;;26.30;99.90;;;;;;4946765;29;20982;-64
2023/10/03 10:06:28;;;;;;;4.37;3.60;;;26.50;99.90;;;;;;4944357;28;20469;-64
2023/10/03 10:09:13;;;;;;;4.33;3.60;;;26.50;99.90;;;;;;4944306;29;20487;-64
2023/10/03 10:12:10;;;;;;;4.90;3.03;;;26.40;99.90;;;;;;4941235;29;20528;-65
2023/10/03 10:15:02;;;;;;;4.10;3.63;;;26.10;99.90;;;;;;4943771;28;20477;-65
2023/10/03 10:17:41;;;;;;;4.10;3.70;;;25.80;99.90;;;;;;4952748;28;20526;-64
2023/10/03 10:20:12;;;;;;;8.10;3.80;;;25.60;99.90;;;;;;4952560;28;20835;-64
2023/10/03 10:23:20;;;;;;;4.27;3.80;;;25.50;99.90;;;;;;4944126;28;20468;-64
2023/10/03 10:25:56;;;;;;;6.30;3.93;;;25.40;99.90;;;;;;4952158;28;20945;-65
2023/10/03 10:28:27;;;;;;;4.90;3.60;;;25.20;99.90;;;;;;4948540;28;20468;-64
2023/10/03 10:31:17;;;;;;;4.10;3.70;;;25.10;99.90;;;;;;4940337;29;20494;-64
2023/10/03 10:33:45;;;;;;;5.40;3.40;;;25.10;99.90;;;;;;4948068;28;20464;-64
2023/10/03 10:36:12;;;;;;;3.80;3.30;;;25.00;99.90;;;;;;4947770;28;20468;-64
2023/10/03 10:38:53;;;;;;;3.63;2.83;;;24.90;99.90;;;;;;4948198;28;20468;-64
2023/10/03 10:41:27;;;;;;;4.43;3.20;;;24.90;99.90;;;;;;4944861;28;20540;-64
2023/10/03 10:44:13;;;;;;;5.87;4.40;;;24.90;99.90;;;;;;4948877;29;20461;-64
2023/10/03 10:46:43;;;;;;;4.67;4.00;;;24.90;99.90;;;;;;4952122;28;20483;-64
2023/10/03 10:49:44;;;;;;;5.03;3.60;;;24.80;99.90;;;;;;4947997;28;20939;-64
2023/10/03 10:52:12;;;;;;;4.77;3.50;;;24.70;99.90;;;;;;4942340;29;20563;-64
2023/10/03 10:54:42;;;;;;;4.13;3.73;;;24.80;99.90;;;;;;4947396;28;20469;-64
2023/10/03 10:57:11;;;;;;;3.87;3.10;;;24.90;99.90;;;;;;4952094;28;20839;-64
2023/10/03 10:59:40;;;;;;;3.87;3.47;;;25.20;99.90;;;;;;4949477;28;20519;-64
2023/10/03 11:02:16;;;;;;;4.30;3.30;;;25.70;99.90;;;;;;4951498;28;20535;-64
2023/10/03 11:04:43;;;;;;;5.43;3.60;;;26.10;99.90;;;;;;4955466;28;20456;-63
2023/10/03 11:07:10;;;;;;;3.67;3.20;;;26.30;99.90;;;;;;4949689;28;20460;-65
2023/10/03 11:09:37;;;;;;;6.70;3.90;;;26.60;99.90;;;;;;4949131;29;20461;-64
2023/10/03 11:12:06;;;;;;;5.00;4.30;;;26.70;99.90;;;;;;4946404;28;20479;-64
2023/10/03 11:14:34;;;;;;;3.70;3.27;;;26.90;99.90;;;;;;4948305;29;20464;-64
2023/10/03 11:17:02;;;;;;;4.10;3.40;;;27.00;99.90;;;;;;4947221;28;20857;-64
2023/10/03 11:19:30;;;;;;;4.83;4.00;;;27.20;99.90;;;;;;4955284;28;20460;-64
2023/10/03 11:21:57;;;;;;;6.43;3.63;;;27.20;99.90;;;;;;4955386;28;20482;-64
2023/10/03 11:24:24;;;;;;;6.10;3.40;;;26.90;99.90;;;;;;4947802;28;20465;-65
2023/10/03 11:26:53;;;;;;;6.07;4.30;;;26.80;99.90;;;;;;4946617;29;20989;-65
2023/10/03 11:29:44;;;;;;;4.97;3.90;;;26.60;99.90;;;;;;4947018;28;20475;-64
2023/10/03 11:32:19;;;;;;;4.03;3.23;;;26.40;99.90;;;;;;4943772;28;20491;-64
2023/10/03 11:34:48;;;;;;;5.40;4.03;;;26.20;99.90;;;;;;4949812;29;20463;-65
2023/10/03 11:37:31;;;;;;;5.93;3.73;;;26.10;99.90;;;;;;4947896;28;20854;-63
2023/10/03 11:40:14;;;;;;;5.70;4.20;;;26.00;99.90;;;;;;4946613;29;20475;-65
2023/10/03 11:42:48;;;;;;;4.27;3.60;;;26.00;99.90;;;;;;4954415;28;20506;-64
2023/10/03 11:45:19;;;;;;;3.67;3.33;;;26.10;99.90;;;;;;4953561;28;20468;-65
2023/10/03 11:47:58;;;;;;;4.07;3.47;;;26.30;99.90;;;;;;4954573;28;20480;-64
2023/10/03 11:50:26;;;;;;;3.90;3.50;;;26.40;99.90;;;;;;4954217;28;20524;-64
2023/10/03 11:52:53;;;;;;;3.97;3.57;;;26.30;99.90;;;;;;4954617;28;20472;-64
2023/10/03 11:55:19;;;;;;;4.03;3.63;;;26.40;99.90;;;;;;4953322;28;20989;-64
2023/10/03 11:57:46;;;;;;;5.60;3.90;;;26.50;99.90;;;;;;4954333;28;20526;-64
2023/10/03 12:00:15;;;;;;;6.10;3.90;;;26.60;99.90;;;;;;4954031;28;20464;-64
2023/10/03 12:02:45;;;;;;;4.53;3.83;;;26.80;99.90;;;;;;4946696;28;20558;-64
2023/10/03 12:05:12;;;;;;;5.00;4.27;;;27.10;99.90;;;;;;4945776;28;20830;-64
2023/10/03 12:07:40;;;;;;;3.60;3.30;;;27.30;99.90;;;;;;4946686;28;20943;-64
2023/10/03 12:10:10;;;;;;;5.47;4.17;;;27.40;99.90;;;;;;4950116;28;20488;-64
2023/10/03 12:12:37;;;;;;;8.43;3.73;;;27.40;99.90;;;;;;4950658;28;20571;-64
2023/10/03 12:15:07;;;;;;;3.70;3.40;;;27.60;99.90;;;;;;4953693;28;20523;-64
2023/10/03 12:17:34;;;;;;;5.90;3.90;;;27.80;99.90;;;;;;4950588;28;20502;-64
2023/10/03 12:20:03;;;;;;;5.00;4.23;;;27.80;99.90;;;;;;4950416;28;20519;-64
2023/10/03 12:22:30;;;;;;;4.77;4.13;;;27.60;99.90;;;;;;4947540;29;20563;-64
2023/10/03 12:24:57;;;;;;;4.47;3.60;;;27.50;99.90;;;;;;4953693;28;20464;-64
2023/10/03 12:27:23;;;;;;;4.83;3.67;;;27.30;99.90;;;;;;4943614;28;20534;-64
2023/10/03 12:29:51;;;;;;;4.70;3.73;;;27.10;99.90;;;;;;4946466;29;20475;-64
2023/10/03 12:32:18;;;;;;;5.40;3.97;;;27.00;99.90;;;;;;4946497;28;20488;-64
2023/10/03 12:34:46;;;;;;;8.70;3.80;;;26.60;99.90;;;;;;4950141;28;20474;-65
2023/10/03 12:37:16;;;;;;;4.10;3.43;;;26.30;99.90;;;;;;4946592;28;20501;-64
2023/10/03 12:39:43;;;;;;;5.90;3.60;;;25.90;99.90;;;;;;4950399;28;20503;-64
2023/10/03 12:42:11;;;;;;;8.30;3.90;;;25.60;99.90;;;;;;4953446;28;20484;-65
2023/10/03 12:44:37;;;;;;;7.40;4.67;;;25.40;99.90;;;;;;4950048;28;20902;-64
2023/10/03 12:47:04;;;;;;;6.33;4.23;;;25.20;99.90;;;;;;4949966;28;20816;-64
2023/10/03 12:49:31;;;;;;;4.73;4.10;;;24.90;99.90;;;;;;4946635;28;20476;-64
2023/10/03 12:51:59;;;;;;;4.30;3.90;;;24.80;99.90;;;;;;4950200;28;20488;-65
2023/10/03 12:54:27;;;;;;;6.93;4.10;;;24.80;99.90;;;;;;4949708;28;20838;-64
2023/10/03 12:56:54;;;;;;;5.07;4.10;;;24.80;99.90;;;;;;4942186;29;20479;-64
2023/10/03 12:59:21;;;;;;;4.07;3.30;;;24.60;99.90;;;;;;4949849;28;20486;-64
2023/10/03 13:01:48;;;;;;;4.20;3.80;;;24.60;99.90;;;;;;4953402;28;20511;-64
2023/10/03 13:04:16;;;;;;;6.20;4.87;;;24.50;99.90;;;;;;4951522;28;20468;-64
2023/10/03 13:06:42;;;;;;;6.97;4.53;;;24.40;99.90;;;;;;4951655;29;20544;-64
2023/10/03 13:09:09;;;;;;;7.10;4.20;;;24.30;99.90;;;;;;4948905;28;20456;-64
2023/10/03 13:11:37;;;;;;;5.33;4.70;;;24.30;99.90;;;;;;4947858;28;20493;-64
2023/10/03 13:14:05;;;;;;;6.50;4.43;;;24.30;99.90;;;;;;4943690;28;20468;-64
2023/10/03 13:16:31;;;;;;;5.10;3.50;;;24.30;99.90;;;;;;4949696;29;20535;-64
2023/10/03 13:19:00;;;;;;;5.20;3.87;;;24.30;99.90;;;;;;4949987;28;20468;-65
2023/10/03 13:21:27;;;;;;;5.40;3.80;;;24.20;99.90;;;;;;4945739;28;20484;-64
2023/10/03 13:23:54;;;;;;;4.77;4.10;;;24.00;99.90;;;;;;4947556;29;20467;-64
2023/10/03 13:26:21;;;;;;;5.73;4.27;;;23.90;99.90;;;;;;4946947;28;20456;-64
2023/10/03 13:28:49;;;;;;;4.07;3.70;;;23.90;99.90;;;;;;4945968;29;20478;-64
2023/10/03 13:31:16;;;;;;;6.53;4.27;;;23.70;99.90;;;;;;4947666;28;20502;-63
2023/10/03 13:33:43;;;;;;;4.97;3.83;;;23.60;99.90;;;;;;4951726;29;20471;-64
2023/10/03 13:36:09;;;;;;;6.33;4.67;;;23.50;99.90;;;;;;4949413;28;20464;-64
2023/10/03 13:38:36;;;;;;;4.93;4.30;;;23.30;99.90;;;;;;4952995;28;20468;-63
2023/10/03 13:41:05;;;;;;;5.40;4.60;;;23.30;99.90;;;;;;4949520;28;20843;-63
2023/10/03 13:43:32;;;;;;;7.50;4.73;;;23.30;99.90;;;;;;4946598;28;20473;-64
2023/10/03 13:46:01;;;;;;;6.03;4.83;;;23.20;99.90;;;;;;4949706;28;20468;-64
2023/10/03 13:48:28;;;;;;;6.20;4.60;;;23.20;99.90;;;;;;4949557;28;20464;-64
2023/10/03 13:50:55;;;;;;;4.50;4.10;;;23.30;99.90;;;;;;4942099;29;20602;-64
2023/10/03 13:53:22;;;;;;;5.20;4.70;;;23.50;99.90;;;;;;4949332;28;20463;-64
2023/10/03 13:55:50;;;;;;;5.30;4.10;;;23.80;99.90;;;;;;4952377;28;20467;-64
2023/10/03 13:58:17;;;;;;;4.63;4.20;;;23.90;99.90;;;;;;4944838;28;20851;-64
2023/10/03 14:00:44;;;;;;;8.07;4.10;;;24.00;99.90;;;;;;4945441;29;20480;-64
2023/10/03 14:03:17;;;;;;;5.70;4.47;;;24.10;99.90;;;;;;4948659;28;20475;-64
2023/10/03 14:05:45;;;;;;;7.53;4.60;;;24.20;99.90;;;;;;4944960;29;20488;-64
2023/10/03 14:08:12;;;;;;;4.70;4.17;;;24.40;99.90;;;;;;4945366;28;20472;-65
2023/10/03 14:10:43;;;;;;;4.33;3.93;;;24.60;99.90;;;;;;4944418;29;20481;-65
2023/10/03 14:13:10;;;;;;;4.33;3.93;;;24.70;99.90;;;;;;4951845;28;20471;-64
2023/10/03 14:15:38;;;;;;;6.80;3.90;;;24.60;99.90;;;;;;4943914;29;20479;-64
2023/10/03 14:18:05;;;;;;;4.80;4.00;;;24.40;99.90;;;;;;4946682;28;20461;-64
2023/10/03 14:20:33;;;;;;;5.53;3.97;;;24.20;99.90;;;;;;4946632;28;20465;-64
2023/10/03 14:23:00;;;;;;;4.13;3.57;;;24.00;99.90;;;;;;4946827;28;20491;-64
2023/10/03 14:25:27;;;;;;;5.03;4.40;;;23.90;99.90;;;;;;4945971;28;20488;-64
2023/10/03 14:27:54;;;;;;;5.93;3.70;;;23.90;99.90;;;;;;4947816;29;20464;-65
2023/10/03 14:30:21;;;;;;;4.67;3.60;;;23.80;99.90;;;;;;4944377;28;20473;-64
2023/10/03 14:32:50;;;;;;;4.33;3.63;;;23.70;99.90;;;;;;4951717;28;20491;-64
2023/10/03 14:35:17;;;;;;;5.20;4.00;;;23.60;99.90;;;;;;4954094;28;20468;-64
2023/10/03 14:37:46;;;;;;;3.30;3.00;;;23.50;99.90;;;;;;4954978;29;20464;-65
2023/10/03 14:40:17;;;;;;;4.47;3.60;;;23.40;99.90;;;;;;4951970;28;20525;-64
2023/10/03 14:42:44;;;;;;;4.60;3.60;;;23.40;99.90;;;;;;4953385;28;20467;-64
2023/10/03 14:45:13;;;;;;;3.77;3.40;;;23.30;99.90;;;;;;4949522;28;20479;-64
2023/10/03 14:47:40;;;;;;;3.97;3.57;;;23.20;99.90;;;;;;4952555;28;20503;-64
2023/10/03 14:50:08;;;;;;;9.03;3.50;;;23.10;99.90;;;;;;4952761;28;20467;-64
2023/10/03 14:52:35;;;;;;;6.07;3.60;;;23.00;99.90;;;;;;4949977;28;20485;-64
2023/10/03 14:55:04;;;;;;;4.93;3.67;;;23.00;99.90;;;;;;4952719;28;20475;-64
2023/10/03 14:57:31;;;;;;;4.30;3.90;;;22.90;99.90;;;;;;4952636;28;20478;-64
2023/10/03 14:59:58;;;;;;;3.90;3.60;;;22.90;99.90;;;;;;4950179;28;20461;-64
2023/10/03 15:02:24;;;;;;;6.13;3.80;;;22.80;99.90;;;;;;4947607;28;20586;-64
2023/10/03 15:04:51;;;;;;;3.50;3.20;;;22.70;99.90;;;;;;4949467;29;20827;-64
2023/10/03 15:07:19;;;;;;;4.17;3.43;;;22.70;99.90;;;;;;4952708;28;20467;-64
2023/10/03 15:09:46;;;;;;;4.40;2.90;;;22.60;99.90;;;;;;4952874;28;20469;-64
2023/10/03 15:12:14;;;;;;;4.93;3.77;;;22.60;99.90;;;;;;4951773;28;20495;-64
2023/10/03 15:14:41;;;;;;;4.53;3.30;;;22.50;99.90;;;;;;4953472;29;20492;-64
2023/10/03 15:17:10;;;;;;;7.30;3.77;;;22.50;99.90;;;;;;4952595;28;21008;-64
2023/10/03 15:19:37;;;;;;;5.80;3.60;;;22.50;99.90;;;;;;4955352;28;20471;-64
2023/10/03 15:22:11;;;;;;;3.43;3.13;;;22.40;99.90;;;;;;4952694;28;20479;-64
2023/10/03 15:24:38;;;;;;;5.20;2.87;;;22.40;99.90;;;;;;4947569;29;20465;-64
2023/10/03 15:27:04;;;;;;;3.70;2.80;;;22.30;99.90;;;;;;4950085;28;20474;-64
2023/10/03 15:29:34;;;;;;;4.00;3.00;;;22.30;99.90;;;;;;4954898;28;20563;-64
2023/10/03 15:32:01;;;;;;;3.87;2.77;;;22.20;99.90;;;;;;4952448;28;20492;-64
2023/10/03 15:34:30;;;;;;;4.10;2.73;;;22.10;99.90;;;;;;4949830;28;20895;-64
2023/10/03 15:36:57;;;;;;;3.67;3.30;;;21.90;99.90;;;;;;4947702;29;20464;-64
2023/10/03 15:39:24;;;;;;;4.07;3.03;;;21.70;99.90;;;;;;4951863;28;20464;-64
2023/10/03 15:41:53;;;;;;;6.60;2.90;;;21.50;99.90;;;;;;4955060;28;20551;-64
2023/10/03 15:44:19;;;;;;;5.13;3.73;;;21.40;99.90;;;;;;4948441;28;20464;-64
2023/10/03 15:46:47;;;;;;;3.93;3.53;;;21.30;99.90;;;;;;4953288;29;20468;-64
2023/10/03 15:49:14;;;;;;;3.90;3.50;;;21.10;99.90;;;;;;4952285;28;20560;-64
2023/10/03 15:51:41;;;;;;;3.73;3.37;;;21.00;99.90;;;;;;4954716;28;20487;-64
2023/10/03 15:54:09;;;;;;;3.40;2.93;;;20.90;99.90;;;;;;4954876;28;20471;-64
2023/10/03 15:56:36;;;;;;;2.50;2.30;;;20.90;99.90;;;;;;4954293;28;20471;-64
2023/10/03 15:59:02;;;;;;;4.57;2.30;;;20.70;99.90;;;;;;4954860;28;20468;-64
2023/10/03 16:01:29;;;;;;;3.90;2.23;;;20.30;99.90;;;;;;4951947;28;20904;-65
2023/10/03 16:03:57;;;;;;;3.90;2.00;;;20.00;99.90;;;;;;4954580;28;21206;-64
2023/10/03 16:06:24;;;;;;;2.97;1.73;;;19.70;99.90;;;;;;4949194;28;20473;-64
2023/10/03 16:08:51;;;;;;;1.47;1.30;;;19.40;99.90;;;;;;4954405;28;21004;-64
2023/10/03 16:11:18;;;;;;;1.50;1.30;;;19.10;99.90;;;;;;4949347;28;20513;-64
2023/10/03 16:13:46;;;;;;;2.80;1.70;;;18.70;99.90;;;;;;4954374;28;20462;-64
2023/10/03 16:16:14;;;;;;;2.03;1.80;;;18.40;99.90;;;;;;4951564;28;20469;-64
2023/10/03 16:18:42;;;;;;;3.23;1.77;;;18.10;99.90;;;;;;4951971;28;20481;-64
2023/10/03 16:21:11;;;;;;;3.10;1.60;;;17.90;99.90;;;;;;4951846;28;20485;-64
2023/10/03 16:23:37;;;;;;;2.23;1.40;;;17.80;99.90;;;;;;4951828;28;20469;-64
2023/10/03 16:26:04;;;;;;;2.90;1.60;;;17.60;99.90;;;;;;4949361;28;20464;-64